createdAt,value
2022-09-05T00:03:17.165Z,7.75
2022-09-05T00:07:58.478Z,7.38
2022-09-05T00:12:03.154Z,7.70
2022-09-05T00:16:11.957Z,6.43
2022-09-05T00:24:20.751Z,7.72
2022-09-05T00:25:32.271Z,9.45
2022-09-05T00:30:57.296Z,7.85
2022-09-05T00:34:24.280Z,6.53
2022-09-05T00:38:32.100Z,8.25
2022-09-05T00:42:41.016Z,9.50
2022-09-05T00:47:26.345Z,6.65
2022-09-05T00:51:37.845Z,6.68
2022-09-05T00:56:17.524Z,6.65
2022-09-05T01:00:31.086Z,6.07
2022-09-05T01:05:12.358Z,6.60
2022-09-05T01:09:33.658Z,6.47
2022-09-05T01:13:51.937Z,6.53
2022-09-05T01:18:07.314Z,8.20
2022-09-05T01:22:41.257Z,7.78
2022-09-05T01:27:21.639Z,8.38
2022-09-05T01:31:37.644Z,6.65
2022-09-05T01:36:12.899Z,6.85
2022-09-05T01:40:34.612Z,7.05
2022-09-05T01:44:57.682Z,9.13
2022-09-05T01:49:25.007Z,8.10
2022-09-05T01:53:53.419Z,9.25
2022-09-05T01:58:16.889Z,11.32
2022-09-05T02:02:58.481Z,10.23
2022-09-05T02:07:19.345Z,9.55
2022-09-05T02:11:49.171Z,9.35
2022-09-05T02:16:21.187Z,10.20
2022-09-05T02:20:41.975Z,9.70
2022-09-05T02:24:48.707Z,10.18
2022-09-05T02:29:01.384Z,8.57
2022-09-05T02:33:29.101Z,8.50
2022-09-05T02:39:18.555Z,9.35
2022-09-05T02:45:17.571Z,9.68
2022-09-05T02:47:22.491Z,9.98
2022-09-05T02:57:23.151Z,9.27
2022-09-05T02:57:42.487Z,10.45
2022-09-05T03:01:03.354Z,10.13
2022-09-05T03:05:12.968Z,9.07
2022-09-05T03:09:34.426Z,9.45
2022-09-05T03:14:11.414Z,10.38
2022-09-05T03:18:41.505Z,8.85
2022-09-05T03:23:12.510Z,10.73
2022-09-05T03:27:44.073Z,8.13
2022-09-05T03:32:34.490Z,10.10
2022-09-05T03:37:07.818Z,9.73
2022-09-05T03:41:40.067Z,9.32
2022-09-05T03:46:02.764Z,9.00
2022-09-05T03:53:17.988Z,10.48
2022-09-05T03:57:12.689Z,11.35
2022-09-05T04:00:09.869Z,10.52
2022-09-05T04:08:10.041Z,9.60
2022-09-05T04:09:09.099Z,10.70
2022-09-05T04:13:23.933Z,10.63
2022-09-05T04:17:35.498Z,10.85
2022-09-05T04:21:55.383Z,10.23
2022-09-05T04:26:20.606Z,10.60
2022-09-05T04:30:46.639Z,11.98
2022-09-05T04:34:52.850Z,12.73
2022-09-05T04:39:17.401Z,12.75
2022-09-05T04:43:41.753Z,11.77
2022-09-05T04:47:52.367Z,13.35
2022-09-05T04:52:42.435Z,12.20
2022-09-05T04:56:49.932Z,11.82
2022-09-05T05:06:11.234Z,14.23
2022-09-05T05:06:13.104Z,12.40
2022-09-05T05:11:06.134Z,13.95
2022-09-05T05:18:09.766Z,14.25
2022-09-05T05:19:57.810Z,13.13
2022-09-05T05:24:15.342Z,13.75
2022-09-05T05:28:55.721Z,15.25
2022-09-05T05:33:00.573Z,13.55
2022-09-05T05:37:14.837Z,14.52
2022-09-05T05:41:31.282Z,13.50
2022-09-05T05:45:34.287Z,14.85
2022-09-05T05:49:37.007Z,14.60
2022-09-05T05:53:44.849Z,13.55
2022-09-05T05:58:07.564Z,14.30
2022-09-05T06:02:31.565Z,12.70
2022-09-05T06:06:56.221Z,13.90
2022-09-05T06:15:03.763Z,11.75
2022-09-05T06:16:08.464Z,10.65
2022-09-05T06:22:07.009Z,10.85
2022-09-05T06:25:17.337Z,10.38
2022-09-05T06:29:51.595Z,11.70
2022-09-05T06:34:32.771Z,13.30
2022-09-05T06:39:02.607Z,11.30
2022-09-05T06:43:26.507Z,9.77
2022-09-05T06:47:34.097Z,10.98
2022-09-05T06:52:28.674Z,7.07
2022-09-05T06:56:54.030Z,8.15
2022-09-05T07:00:59.000Z,7.88
2022-09-05T07:05:37.615Z,6.47
2022-09-05T07:10:36.907Z,6.63
2022-09-05T07:15:09.381Z,6.80
2022-09-05T07:19:38.380Z,11.27
2022-09-05T07:24:06.997Z,13.20
2022-09-05T07:28:25.901Z,13.77
2022-09-05T07:32:39.837Z,14.32
2022-09-05T07:36:46.784Z,14.63
2022-09-05T07:41:06.549Z,13.35
2022-09-05T07:45:17.551Z,11.80
2022-09-05T07:49:21.960Z,11.80
2022-09-05T07:56:51.809Z,12.57
2022-09-05T07:57:51.953Z,9.50
2022-09-05T08:01:56.599Z,7.72
2022-09-05T08:06:05.448Z,7.88
2022-09-05T08:10:17.262Z,8.68
2022-09-05T08:14:44.897Z,9.52
2022-09-05T08:19:18.428Z,10.63
2022-09-05T08:23:36.424Z,11.07
2022-09-05T08:28:03.353Z,9.15
2022-09-05T08:32:10.108Z,15.35
2022-09-05T08:36:31.358Z,10.20
2022-09-05T08:41:43.074Z,6.88
2022-09-05T08:46:40.133Z,6.55
2022-09-05T08:50:46.504Z,6.20
2022-09-05T08:55:08.596Z,8.02
2022-09-05T08:59:33.299Z,8.40
2022-09-05T09:04:13.097Z,5.97
2022-09-05T09:08:37.693Z,7.65
2022-09-05T09:12:59.185Z,5.68
2022-09-05T09:17:37.859Z,6.75
2022-09-05T09:21:46.906Z,5.72
2022-09-05T09:26:11.594Z,6.22
2022-09-05T09:30:16.209Z,5.75
2022-09-05T09:34:32.777Z,5.22
2022-09-05T09:38:48.021Z,6.07
2022-09-05T09:42:57.704Z,3.90
2022-09-05T09:47:03.280Z,6.63
2022-09-05T09:51:43.455Z,4.80
2022-09-05T09:56:27.672Z,5.47
2022-09-05T10:00:51.540Z,4.63
2022-09-05T10:10:46.650Z,6.13
2022-09-05T10:10:51.339Z,3.90
2022-09-05T10:14:59.612Z,3.95
2022-09-05T10:24:00.573Z,4.18
2022-09-05T10:28:10.766Z,4.75
2022-09-05T10:35:10.064Z,4.57
2022-09-05T10:37:12.409Z,4.60
2022-09-05T10:41:23.135Z,7.13
2022-09-05T10:45:49.765Z,3.80
2022-09-05T10:50:19.208Z,4.57
2022-09-05T10:54:22.567Z,5.82
2022-09-05T11:01:12.715Z,4.10
2022-09-05T11:03:01.448Z,3.22
2022-09-05T11:07:29.902Z,8.35
2022-09-05T11:11:46.698Z,2.78
2022-09-05T11:16:04.992Z,3.22
2022-09-05T11:20:35.477Z,5.78
2022-09-05T11:24:59.267Z,4.05
2022-09-05T11:29:18.436Z,5.07
2022-09-05T11:39:59.504Z,4.35
2022-09-05T11:40:10.956Z,3.58
2022-09-05T11:42:56.990Z,4.93
2022-09-05T11:47:27.069Z,5.22
2022-09-05T11:51:43.967Z,4.78
2022-09-05T11:56:08.365Z,3.97
2022-09-05T12:00:34.695Z,3.20
2022-09-05T12:05:50.385Z,4.07
2022-09-05T12:09:50.259Z,4.68
2022-09-05T12:19:43.141Z,3.35
2022-09-05T12:24:35.405Z,3.53
2022-09-05T12:29:26.280Z,4.40
2022-09-05T12:36:05.776Z,3.45
2022-09-05T12:41:41.216Z,3.55
2022-09-05T12:42:54.779Z,6.85
2022-09-05T12:47:23.237Z,4.40
2022-09-05T12:51:46.016Z,1.98
2022-09-05T12:56:38.690Z,3.38
2022-09-05T13:03:08.948Z,2.97
2022-09-05T13:05:03.538Z,3.90
2022-09-05T13:09:16.801Z,4.13
2022-09-05T13:14:56.694Z,3.80
2022-09-05T13:17:59.696Z,4.38
2022-09-05T13:22:04.825Z,2.78
2022-09-05T13:26:18.065Z,5.22
2022-09-05T13:31:36.205Z,2.28
2022-09-05T13:38:04.153Z,2.63
2022-09-05T13:39:14.414Z,2.60
2022-09-05T13:43:26.510Z,2.67
2022-09-05T13:47:58.040Z,4.50
2022-09-05T13:52:29.186Z,3.38
2022-09-05T13:56:33.196Z,3.60
2022-09-05T14:00:38.256Z,2.42
2022-09-05T14:05:16.147Z,1.73
2022-09-05T14:09:42.462Z,3.63
2022-09-05T14:14:02.228Z,4.07
2022-09-05T14:18:20.561Z,4.97
2022-09-05T14:22:48.696Z,2.97
2022-09-05T14:27:07.161Z,4.22
2022-09-05T14:37:41.027Z,4.03
2022-09-05T14:37:49.104Z,3.13
2022-09-05T14:40:39.610Z,3.42
2022-09-05T14:45:22.893Z,6.28
2022-09-05T14:49:51.173Z,2.53
2022-09-05T14:53:59.969Z,2.67
2022-09-05T15:02:58.393Z,2.75
2022-09-05T15:02:58.535Z,3.92
2022-09-05T15:07:04.147Z,3.33
2022-09-05T15:12:23.313Z,2.75
2022-09-05T15:15:45.216Z,4.00
2022-09-05T15:20:07.478Z,5.90
2022-09-05T15:24:31.308Z,2.90
2022-09-05T15:28:45.701Z,4.22
2022-09-05T15:32:50.726Z,4.13
2022-09-05T15:36:55.408Z,4.07
2022-09-05T15:41:23.210Z,3.17
2022-09-05T15:45:35.737Z,3.65
2022-09-05T15:49:55.942Z,2.40
2022-09-05T15:54:02.034Z,5.32
2022-09-05T15:58:08.031Z,4.25
2022-09-05T16:02:18.936Z,5.93
2022-09-05T16:10:38.655Z,3.35
2022-09-05T16:23:11.643Z,2.63
2022-09-05T16:23:25.485Z,4.60
2022-09-05T16:24:59.305Z,3.83
2022-09-05T16:29:26.197Z,3.65
2022-09-05T16:33:34.062Z,3.50
2022-09-05T16:37:55.196Z,2.30
2022-09-05T16:42:46.110Z,5.57
2022-09-05T16:47:36.380Z,5.13
2022-09-05T16:51:45.981Z,6.10
2022-09-05T16:55:57.757Z,4.55
2022-09-05T17:00:10.284Z,4.88
2022-09-05T17:09:28.232Z,3.50
2022-09-05T17:13:56.946Z,5.45
2022-09-05T17:18:56.054Z,5.60
2022-09-05T17:28:48.715Z,3.00
2022-09-05T17:35:53.714Z,5.47
2022-09-05T17:40:45.215Z,3.40
2022-09-05T17:50:40.215Z,4.35
2022-09-05T17:54:56.014Z,3.15
2022-09-05T17:59:33.868Z,5.65
2022-09-05T18:03:50.750Z,4.13
2022-09-05T18:08:52.839Z,6.25
2022-09-05T18:13:32.211Z,3.05
2022-09-05T18:18:29.953Z,7.15
2022-09-05T18:22:42.287Z,4.63
2022-09-05T18:26:53.309Z,6.40
2022-09-05T18:31:43.725Z,5.57
2022-09-05T18:35:55.089Z,4.33
2022-09-05T18:40:16.634Z,5.38
2022-09-05T18:44:59.758Z,5.68
2022-09-05T18:50:12.563Z,5.20
2022-09-05T18:53:42.521Z,5.70
2022-09-05T18:57:58.872Z,4.68
2022-09-05T19:02:34.891Z,4.05
2022-09-05T19:06:38.002Z,7.70
2022-09-05T19:10:41.656Z,4.25
2022-09-05T19:14:57.330Z,6.00
2022-09-05T19:19:09.338Z,5.10
2022-09-05T19:23:13.793Z,3.95
2022-09-05T19:28:13.898Z,6.65
2022-09-05T19:36:53.009Z,6.82
2022-09-05T19:37:15.393Z,5.15
2022-09-05T19:46:52.177Z,7.45
2022-09-05T19:47:37.699Z,4.60
2022-09-05T19:50:07.134Z,4.15
2022-09-05T19:54:38.284Z,5.13
2022-09-05T19:58:42.448Z,6.07
2022-09-05T20:02:53.335Z,5.40
2022-09-05T20:06:56.955Z,5.20
2022-09-05T20:11:07.135Z,4.40
2022-09-05T20:15:22.844Z,6.15
2022-09-05T20:19:32.372Z,7.78
2022-09-05T20:23:39.815Z,5.95
2022-09-05T20:27:46.191Z,7.22
2022-09-05T20:41:32.156Z,6.25
2022-09-05T20:43:15.475Z,6.03
2022-09-05T20:45:07.163Z,5.28
2022-09-05T20:54:16.617Z,6.10
2022-09-05T20:54:27.679Z,5.45
2022-09-05T20:58:31.215Z,6.07
2022-09-05T21:02:35.616Z,4.72
2022-09-05T21:06:41.619Z,4.60
2022-09-05T21:10:56.494Z,8.10
2022-09-05T21:15:31.743Z,5.50
2022-09-05T21:19:54.206Z,7.20
2022-09-05T21:24:17.185Z,5.22
2022-09-05T21:28:36.597Z,6.15
2022-09-05T21:32:42.755Z,9.63
2022-09-05T21:36:45.443Z,5.22
2022-09-05T21:40:52.863Z,7.82
2022-09-05T21:47:39.161Z,6.57
2022-09-05T21:49:18.950Z,7.82
2022-09-05T21:59:02.060Z,7.72
2022-09-05T21:59:19.474Z,6.63
2022-09-05T22:02:37.419Z,7.70
2022-09-05T22:06:40.889Z,7.80
2022-09-05T22:10:52.340Z,7.78
2022-09-05T22:15:08.694Z,8.80
2022-09-05T22:19:37.829Z,7.73
2022-09-05T22:23:46.028Z,7.95
2022-09-05T22:27:50.686Z,7.63
2022-09-05T22:31:54.762Z,10.32
2022-09-05T22:36:00.034Z,6.75
2022-09-05T22:40:09.719Z,8.10
2022-09-05T22:44:12.554Z,8.65
2022-09-05T22:48:15.550Z,8.98
2022-09-05T22:52:18.351Z,5.45
2022-09-05T22:56:32.750Z,6.65
2022-09-05T23:00:36.285Z,7.10
2022-09-05T23:04:39.040Z,10.50
2022-09-05T23:08:50.546Z,7.30
2022-09-05T23:13:03.454Z,6.88
2022-09-05T23:17:06.783Z,6.00
2022-09-05T23:21:17.408Z,8.65
2022-09-05T23:25:24.295Z,7.55
2022-09-05T23:29:30.387Z,7.95
2022-09-05T23:33:37.711Z,7.80
2022-09-05T23:37:50.621Z,9.02
2022-09-05T23:42:07.704Z,7.57
2022-09-05T23:46:16.715Z,8.05
2022-09-05T23:50:20.588Z,7.47
2022-09-05T23:54:28.780Z,9.43
2022-09-05T23:58:42.384Z,7.60
